Roswell, South Dakota
Current Conditions -  °F | °C
As of 8:10 AM on Thursday 18 Dec 2014 (Local Time) from KMDS Reporting Station
Overcast Overcast  
Wind Chill:   Ceiling: 6500
Heat Index: 18°   Visibility: 10mi
Dew Point: 18°   Wind: 7mph
Humidity: 100%   Direction: 150°SSE
Pressure: 30.19"   Gusts: NA
Location:  44.0529°N, 97.5161°W
Report Text: KMDS 181410Z AUTO 15006KT 10SM OVC065 M08/M08 A3019 RMK AO2
Loading
Personal Weather Stations






























Interactive Weather Map New forecast layout! Learn more

10-Day Weather Forecast

Advertisements
Track Severe Weather on mobile